Time;durP1;ratioP1;P1;durP2;ratioP2;P2;SDS_P1;SDS_P2;PMS_P1;PMS_P2;Temp;Humidity;BMP_temperature;BMP_pressure;BME280_temperature;BME280_humidity;BME280_pressure;Samples;Min_cycle;Max_cycle;Signal;HPM_P1;HPM_P2
2022/04/01 00:00:14;;;;;;;43.78;28.65;;;384.60;2329.60;;;;;;5049766;28;20044;-55
2022/04/01 00:02:40;;;;;;;33.75;19.88;;;384.60;2329.60;;;;;;5049481;28;20021;-55
2022/04/01 00:05:07;;;;;;;38.80;22.33;;;384.50;2329.60;;;;;;5049430;28;20048;-56
2022/04/01 00:07:34;;;;;;;96.40;56.90;;;384.50;2329.60;;;;;;5049652;28;20013;-55
2022/04/01 00:10:00;;;;;;;25.00;15.77;;;384.50;2329.60;;;;;;5049248;28;20124;-55
2022/04/01 00:12:26;;;;;;;36.63;20.90;;;384.50;2329.60;;;;;;5049433;28;20104;-55
2022/04/01 00:14:53;;;;;;;29.02;17.67;;;384.60;2329.60;;;;;;5049684;28;20115;-55
2022/04/01 00:17:19;;;;;;;29.80;17.05;;;384.50;2329.60;;;;;;5049356;28;20025;-54
2022/04/01 00:19:45;;;;;;;29.90;18.23;;;384.50;2329.60;;;;;;5049545;28;20048;-54
2022/04/01 00:22:11;;;;;;;19.00;11.00;;;384.50;2329.60;;;;;;5049337;28;20108;-55
2022/04/01 00:24:37;;;;;;;26.90;17.13;;;384.40;2329.60;;;;;;5049334;28;20159;-55
2022/04/01 00:27:03;;;;;;;55.10;32.35;;;384.40;2329.60;;;;;;5049543;28;20471;-56
2022/04/01 00:29:28;;;;;;;29.70;18.08;;;384.30;2329.60;;;;;;5052611;28;20048;-55
2022/04/01 00:31:59;;;;;;;31.00;16.13;;;384.40;2329.60;;;;;;5053078;28;20048;-55
2022/04/01 00:34:30;;;;;;;18.48;9.15;;;384.20;2329.60;;;;;;5053226;28;20017;-55
2022/04/01 00:36:58;;;;;;;12.68;7.60;;;384.10;2329.60;;;;;;5053219;28;20021;-55
2022/04/01 00:39:25;;;;;;;37.08;20.25;;;384.00;2329.60;;;;;;5052885;28;20036;-55
2022/04/01 00:41:52;;;;;;;20.48;13.02;;;359.30;2329.60;;;;;;5052887;28;20028;-54
2022/04/01 00:44:19;;;;;;;22.00;11.77;;;359.20;2329.60;;;;;;5052883;28;20040;-55
2022/04/01 00:46:47;;;;;;;21.73;11.73;;;359.10;2329.60;;;;;;5052856;28;20033;-55
2022/04/01 00:49:13;;;;;;;44.00;25.60;;;359.10;2329.60;;;;;;5052766;28;20064;-55
2022/04/01 00:51:42;;;;;;;5.10;2.60;;;359.10;2329.60;;;;;;5052765;28;20060;-55
2022/04/01 00:54:09;;;;;;;4.07;2.00;;;359.00;2329.60;;;;;;5052432;28;20041;-55
2022/04/01 00:56:35;;;;;;;10.77;5.70;;;359.10;2329.60;;;;;;5052967;28;20059;-55
2022/04/01 00:59:05;;;;;;;11.32;4.88;;;359.20;2329.60;;;;;;5052698;28;20025;-54
2022/04/01 01:01:31;;;;;;;99.78;53.50;;;359.20;2329.60;;;;;;5052486;28;20080;-55
2022/04/01 01:04:10;;;;;;;85.78;47.30;;;359.20;2329.60;;;;;;5052527;28;20047;-55
2022/04/01 01:06:41;;;;;;;21.63;13.73;;;359.20;2329.60;;;;;;5052732;28;20107;-55
2022/04/01 01:09:08;;;;;;;12.38;5.90;;;359.20;2329.60;;;;;;5052273;28;20078;-55
2022/04/01 01:11:38;;;;;;;13.35;7.57;;;359.30;2329.60;;;;;;5052622;28;20433;-55
2022/04/01 01:14:11;;;;;;;36.88;20.45;;;359.30;2329.60;;;;;;5052465;28;20028;-54
2022/04/01 01:16:41;;;;;;;14.82;7.50;;;359.30;2329.60;;;;;;5052525;28;20094;-56
2022/04/01 01:19:11;;;;;;;11.27;7.03;;;359.20;2329.60;;;;;;5052305;28;20087;-55
2022/04/01 01:21:37;;;;;;;10.48;6.38;;;359.30;2329.60;;;;;;5052123;28;20028;-55
2022/04/01 01:24:08;;;;;;;13.70;6.90;;;359.20;2329.60;;;;;;5052140;28;20048;-55
2022/04/01 01:26:36;;;;;;;10.00;6.20;;;359.20;2329.60;;;;;;5052176;28;20033;-55
2022/04/01 01:29:04;;;;;;;17.48;10.55;;;359.20;2329.60;;;;;;5051748;28;20124;-55
2022/04/01 01:31:31;;;;;;;13.05;8.57;;;359.20;2329.60;;;;;;5052251;28;20057;-55
2022/04/01 01:33:58;;;;;;;14.25;8.60;;;359.20;2329.60;;;;;;5051967;28;20051;-55
2022/04/01 01:36:25;;;;;;;17.90;9.23;;;359.20;2329.60;;;;;;5052169;28;20025;-55
2022/04/01 01:38:51;;;;;;;22.38;11.80;;;359.20;2329.60;;;;;;5051326;28;20445;-55
2022/04/01 01:41:17;;;;;;;24.67;14.05;;;359.20;2329.60;;;;;;5051650;28;20386;-55
2022/04/01 01:43:44;;;;;;;21.02;10.40;;;359.20;2329.60;;;;;;5051901;28;20056;-55
2022/04/01 01:46:10;;;;;;;15.95;8.23;;;359.20;2329.60;;;;;;5051395;28;20025;-55
2022/04/01 01:48:36;;;;;;;14.15;7.00;;;384.00;2329.60;;;;;;5052087;28;20059;-55
2022/04/01 01:56:31;;;;;;;40.47;15.30;;;384.10;2329.60;;;;;;5051712;28;20095;-55
2022/04/01 01:58:57;;;;;;;35.88;18.27;;;384.10;2329.60;;;;;;5051451;28;20037;-55
2022/04/01 02:01:23;;;;;;;14.52;6.80;;;384.10;2329.60;;;;;;5051490;28;20048;-54
2022/04/01 02:03:51;;;;;;;8.27;4.97;;;384.10;2329.60;;;;;;5051443;28;20036;-55
2022/04/01 02:06:16;;;;;;;8.85;4.00;;;384.10;2329.60;;;;;;5051448;28;20068;-55
2022/04/01 02:08:42;;;;;;;9.27;4.70;;;384.10;2329.60;;;;;;5051439;28;20464;-55
2022/04/01 02:11:08;;;;;;;6.95;4.20;;;384.10;2329.60;;;;;;5050930;28;20037;-55
2022/04/01 02:13:34;;;;;;;9.82;5.10;;;384.10;2329.60;;;;;;5051475;28;20024;-55
2022/04/01 02:16:01;;;;;;;10.48;5.30;;;384.10;2329.60;;;;;;5051134;28;20463;-55
2022/04/01 02:18:27;;;;;;;11.38;6.43;;;384.30;2329.60;;;;;;5051088;28;20446;-56
2022/04/01 02:20:53;;;;;;;15.07;6.22;;;384.30;2329.60;;;;;;5051158;28;20470;-55
2022/04/01 02:23:19;;;;;;;10.90;5.25;;;384.30;2329.60;;;;;;5050920;28;20021;-55
2022/04/01 02:25:44;;;;;;;10.25;5.53;;;384.30;2329.60;;;;;;5050940;28;20032;-55
2022/04/01 02:28:12;;;;;;;9.63;6.25;;;384.30;2329.60;;;;;;5050602;28;20174;-55
2022/04/01 02:30:38;;;;;;;11.77;5.97;;;384.10;2329.60;;;;;;5050851;28;20110;-56
2022/04/01 02:33:06;;;;;;;14.93;8.10;;;359.30;2329.60;;;;;;5051025;28;20028;-55
2022/04/01 02:35:33;;;;;;;14.35;8.10;;;359.20;2329.60;;;;;;5050906;28;20102;-55
2022/04/01 02:37:59;;;;;;;12.00;6.75;;;359.10;2329.60;;;;;;5050669;28;20431;-55
2022/04/01 02:40:25;;;;;;;16.77;7.90;;;359.00;2329.60;;;;;;5050814;28;20364;-55
2022/04/01 02:42:53;;;;;;;14.40;7.72;;;359.00;2329.60;;;;;;5050802;28;20040;-55
2022/04/01 02:45:21;;;;;;;14.38;7.93;;;359.00;2329.60;;;;;;5050442;28;20062;-56
2022/04/01 02:47:48;;;;;;;10.93;6.38;;;359.00;2329.60;;;;;;5050458;28;20067;-56
2022/04/01 02:50:13;;;;;;;16.20;7.95;;;358.90;2329.60;;;;;;5049633;28;20087;-56
2022/04/01 02:52:39;;;;;;;15.07;6.05;;;358.90;2329.60;;;;;;5050377;28;20021;-55
2022/04/01 02:55:06;;;;;;;12.93;5.25;;;358.80;2329.60;;;;;;5050494;28;20029;-54
2022/04/01 02:57:33;;;;;;;12.88;7.05;;;358.80;2329.60;;;;;;5050659;28;20461;-55
2022/04/01 02:59:59;;;;;;;16.10;7.38;;;358.80;2329.60;;;;;;5050500;28;20391;-55
2022/04/01 03:02:25;;;;;;;11.35;5.28;;;358.80;2329.60;;;;;;5050445;28;20021;-55
2022/04/01 03:04:51;;;;;;;10.75;5.20;;;358.70;2329.60;;;;;;5050242;28;20029;-54
2022/04/01 03:07:17;;;;;;;11.38;6.72;;;358.80;2329.60;;;;;;5050355;28;20368;-55
2022/04/01 03:09:42;;;;;;;8.70;5.93;;;358.80;2329.60;;;;;;5050038;28;20037;-55
2022/04/01 03:12:08;;;;;;;10.95;8.00;;;358.80;2329.60;;;;;;5049936;28;20452;-55
2022/04/01 03:14:34;;;;;;;11.23;7.38;;;358.70;2329.60;;;;;;5050279;28;20025;-56
2022/04/01 03:17:00;;;;;;;9.73;5.28;;;358.60;2329.60;;;;;;5050341;28;20025;-54
2022/04/01 03:19:28;;;;;;;10.95;5.45;;;358.60;2329.60;;;;;;5050160;28;20029;-55
2022/04/01 03:21:55;;;;;;;10.32;5.63;;;358.50;2329.60;;;;;;5050067;28;20033;-54
2022/04/01 03:24:21;;;;;;;11.20;7.38;;;358.50;2329.60;;;;;;5049958;28;20021;-54
2022/04/01 03:26:46;;;;;;;11.27;5.70;;;358.50;2329.60;;;;;;5050208;28;20053;-54
2022/04/01 03:29:12;;;;;;;8.20;4.97;;;358.60;2329.60;;;;;;5049758;28;20041;-54
2022/04/01 03:31:39;;;;;;;8.02;5.30;;;358.50;2329.60;;;;;;5049922;28;20039;-55
2022/04/01 03:34:05;;;;;;;9.35;5.13;;;358.50;2329.60;;;;;;5049926;28;20024;-55
2022/04/01 03:36:32;;;;;;;8.38;4.75;;;358.50;2329.60;;;;;;5050026;28;20029;-54
2022/04/01 03:38:58;;;;;;;9.40;5.22;;;358.40;2329.60;;;;;;5049771;28;20021;-55
2022/04/01 03:41:24;;;;;;;11.73;5.22;;;358.40;2329.60;;;;;;5049903;28;20437;-55
2022/04/01 03:43:51;;;;;;;11.48;5.15;;;333.70;2329.60;;;;;;5049685;28;20467;-55
2022/04/01 03:46:20;;;;;;;9.02;4.85;;;333.60;2329.60;;;;;;5049568;28;20387;-55
2022/04/01 03:48:53;;;;;;;11.05;4.97;;;333.60;2329.60;;;;;;5049948;28;20067;-54
2022/04/01 03:51:24;;;;;;;8.75;5.63;;;333.60;2329.60;;;;;;5049552;28;20094;-54
2022/04/01 03:53:55;;;;;;;12.57;6.07;;;333.60;2329.60;;;;;;5049629;28;20060;-55
2022/04/01 03:56:28;;;;;;;16.45;7.28;;;333.70;2329.60;;;;;;5049541;28;20048;-55
2022/04/01 03:59:01;;;;;;;15.48;6.00;;;333.70;2329.60;;;;;;5049761;28;20029;-53
2022/04/01 04:01:27;;;;;;;10.63;5.25;;;333.70;2329.60;;;;;;5050458;28;20041;-54
2022/04/01 04:03:56;;;;;;;9.10;5.78;;;358.40;2329.60;;;;;;5053917;28;20025;-54
2022/04/01 04:06:23;;;;;;;16.42;6.25;;;358.50;2329.60;;;;;;5053376;28;20029;-54
2022/04/01 04:08:53;;;;;;;13.15;6.13;;;358.50;2329.60;;;;;;5053570;28;20082;-54
2022/04/01 04:11:24;;;;;;;16.27;8.73;;;358.50;2329.60;;;;;;5053321;28;20044;-54
2022/04/01 04:13:53;;;;;;;9.88;7.28;;;358.50;2329.60;;;;;;5053363;28;20021;-54
2022/04/01 04:16:29;;;;;;;12.85;9.30;;;358.50;2329.60;;;;;;5053303;28;20495;-55
2022/04/01 04:19:19;;;;;;;11.65;6.95;;;358.50;2329.60;;;;;;5053567;28;20017;-54
2022/04/01 04:22:00;;;;;;;13.90;8.00;;;358.50;2329.60;;;;;;5053401;28;20111;-54
2022/04/01 04:24:30;;;;;;;14.45;7.72;;;358.50;2329.60;;;;;;5053306;28;20021;-54
2022/04/01 04:27:16;;;;;;;13.82;7.40;;;358.50;2329.60;;;;;;5053443;28;20032;-54
2022/04/01 04:29:50;;;;;;;14.40;8.70;;;358.50;2329.60;;;;;;5052862;28;20044;-54
2022/04/01 04:32:33;;;;;;;12.73;7.18;;;358.60;2329.60;;;;;;5053353;28;20506;-55
2022/04/01 04:35:06;;;;;;;17.23;7.68;;;358.60;2329.60;;;;;;5053263;28;20028;-54
2022/04/01 04:37:35;;;;;;;14.80;6.18;;;358.70;2329.60;;;;;;5053304;28;20060;-55
2022/04/01 04:40:03;;;;;;;11.27;6.45;;;358.70;2329.60;;;;;;5053007;28;20029;-55
2022/04/01 04:42:31;;;;;;;12.40;6.53;;;358.70;2329.60;;;;;;5053012;28;20036;-55
2022/04/01 04:44:58;;;;;;;10.07;7.18;;;358.80;2329.60;;;;;;5052813;28;20034;-55
2022/04/01 04:47:32;;;;;;;13.10;8.00;;;358.80;2329.60;;;;;;5053172;28;20040;-54
2022/04/01 04:49:58;;;;;;;14.02;9.82;;;358.80;2329.60;;;;;;5052828;28;20033;-55
2022/04/01 04:52:31;;;;;;;21.10;9.50;;;358.80;2329.60;;;;;;5053043;28;20029;-55
2022/04/01 04:55:01;;;;;;;19.20;9.80;;;358.80;2329.60;;;;;;5053187;28;20029;-55
2022/04/01 04:57:28;;;;;;;18.85;9.93;;;358.80;2329.60;;;;;;5052788;28;20395;-55
2022/04/01 04:59:57;;;;;;;22.65;12.43;;;358.90;2329.60;;;;;;5052856;28;20044;-54
2022/04/01 05:02:39;;;;;;;19.13;9.48;;;359.20;2329.60;;;;;;5052744;28;20025;-54
2022/04/01 05:05:41;;;;;;;25.60;9.45;;;359.00;2329.60;;;;;;5052791;28;20033;-55
2022/04/01 05:08:40;;;;;;;13.93;7.93;;;359.00;2329.60;;;;;;5050555;28;20070;-55
2022/04/01 05:11:33;;;;;;;24.48;13.52;;;359.10;2329.60;;;;;;5050363;28;20431;-54
2022/04/01 05:14:01;;;;;;;24.17;14.50;;;359.10;2329.60;;;;;;5049500;28;20025;-54
2022/04/01 05:16:27;;;;;;;18.30;11.38;;;359.10;2329.60;;;;;;5050344;28;20502;-59
2022/04/01 05:19:10;;;;;;;35.65;17.85;;;359.20;2329.60;;;;;;5050722;28;20067;-58
2022/04/01 05:21:45;;;;;;;82.00;35.05;;;359.20;2329.60;;;;;;5050238;28;20037;-57
2022/04/01 05:24:14;;;;;;;21.60;8.27;;;359.20;2329.60;;;;;;5050101;28;20025;-59
2022/04/01 05:26:52;;;;;;;19.25;9.75;;;359.20;2329.60;;;;;;5033442;28;20059;-58
2022/04/01 05:29:31;;;;;;;19.13;11.75;;;359.30;2329.60;;;;;;5049673;28;20429;-61
2022/04/01 05:32:11;;;;;;;22.83;11.02;;;359.30;2329.60;;;;;;5049942;28;20064;-57
2022/04/01 05:34:43;;;;;;;23.40;12.27;;;359.30;2329.60;;;;;;5049802;28;20036;-56
2022/04/01 05:37:09;;;;;;;25.05;18.20;;;359.30;2329.60;;;;;;5049763;28;20029;-60
2022/04/01 05:39:37;;;;;;;23.30;16.33;;;384.00;2329.60;;;;;;5049807;28;20429;-60
2022/04/01 05:42:07;;;;;;;24.30;17.35;;;359.30;2329.60;;;;;;5050715;28;20033;-56
2022/04/01 05:44:34;;;;;;;13.95;7.82;;;384.00;2329.60;;;;;;5052102;28;20025;-58
2022/04/01 05:47:01;;;;;;;17.30;10.18;;;384.10;2329.60;;;;;;5051717;28;20028;-57
2022/04/01 05:49:28;;;;;;;23.55;12.50;;;384.20;2329.60;;;;;;5051622;28;20292;-58
2022/04/01 05:51:54;;;;;;;15.50;9.35;;;384.30;2329.60;;;;;;5052149;28;20426;-55
2022/04/01 05:54:22;;;;;;;24.23;15.80;;;384.20;2329.60;;;;;;5051698;28;20028;-56
2022/04/01 05:56:49;;;;;;;13.80;8.15;;;384.10;2329.60;;;;;;5051670;28;20418;-58
2022/04/01 05:59:17;;;;;;;15.60;10.77;;;384.00;2329.60;;;;;;5051606;28;20027;-57
2022/04/01 06:02:06;;;;;;;9.20;6.85;;;384.00;2329.60;;;;;;5051727;28;20040;-61
2022/04/01 06:04:48;;;;;;;8.27;4.88;;;384.00;2329.60;;;;;;5051599;28;20059;-60
2022/04/01 06:07:33;;;;;;;13.10;6.85;;;384.30;2329.60;;;;;;5051648;28;20024;-59
2022/04/01 06:10:09;;;;;;;7.82;4.93;;;384.80;2329.60;;;;;;5051444;28;20048;-59
2022/04/01 06:12:43;;;;;;;10.07;6.30;;;409.90;2355.20;;;;;;5051427;28;20031;-58
2022/04/01 06:15:27;;;;;;;14.60;8.48;;;461.60;2355.20;;;;;;5050608;28;20503;-58
2022/04/01 06:17:52;;;;;;;14.48;7.82;;;563.60;1792.00;;;;;;5051315;28;20092;-60
2022/04/01 06:20:24;;;;;;;16.73;10.57;;;538.10;1817.60;;;;;;5050197;28;20033;-58
2022/04/01 06:22:58;;;;;;;14.10;9.57;;;487.30;1971.20;;;;;;5044382;28;20017;-57
2022/04/01 06:25:29;;;;;;;19.10;11.45;;;461.70;2176.00;;;;;;5039687;28;20035;-58
2022/04/01 06:28:15;;;;;;;13.02;8.70;;;461.20;2380.80;;;;;;5039115;28;20026;-58
2022/04/01 06:30:43;;;;;;;18.50;10.90;;;486.60;2227.20;;;;;;5039785;28;20037;-55
2022/04/01 06:33:08;;;;;;;12.50;7.25;;;512.70;1971.20;;;;;;5038570;28;20022;-59
2022/04/01 06:35:44;;;;;;;18.65;8.98;;;487.30;2048.00;;;;;;5040629;28;20031;-59
2022/04/01 06:38:17;;;;;;;21.70;16.45;;;487.10;2099.20;;;;;;5039244;28;20020;-58
2022/04/01 06:41:04;;;;;;;39.70;25.80;;;486.60;2201.60;;;;;;5040063;28;20021;-61
2022/04/01 06:43:30;;;;;;;33.50;20.20;;;512.10;2073.60;;;;;;5040888;28;20035;-58
2022/04/01 06:45:56;;;;;;;35.90;21.63;;;564.10;1817.60;;;;;;5050645;28;20108;-58
2022/04/01 06:48:22;;;;;;;25.55;17.60;;;640.30;1536.00;;;;;;5050555;28;20060;-59
2022/04/01 06:50:50;;;;;;;54.78;46.28;;;691.20;1433.60;;;;;;5047232;28;20069;-57
2022/04/01 06:53:17;;;;;;;37.65;28.65;;;716.80;1382.40;;;;;;5030436;28;20017;-61
2022/04/01 06:55:44;;;;;;;36.75;25.23;;;717.50;1331.20;;;;;;5030905;28;20035;-59
2022/04/01 06:58:11;;;;;;;26.23;17.73;;;743.30;1305.60;;;;;;5032850;28;20021;-60
2022/04/01 07:00:40;;;;;;;17.95;13.38;;;743.10;1280.00;;;;;;5030726;28;20135;-60
2022/04/01 07:03:07;;;;;;;21.75;17.00;;;793.70;1228.80;;;;;;5030700;28;20116;-60
2022/04/01 07:05:37;;;;;;;17.80;13.15;;;794.00;1177.60;;;;;;5030632;28;20067;-60
2022/04/01 07:08:04;;;;;;;14.52;11.70;;;819.60;1152.00;;;;;;5030671;28;20063;-61
2022/04/01 07:10:31;;;;;;;18.60;13.30;;;819.90;1126.40;;;;;;5030160;28;20076;-61
2022/04/01 07:12:57;;;;;;;17.63;10.43;;;793.70;1203.20;;;;;;5034593;28;20067;-59
2022/04/01 07:15:23;;;;;;;18.08;11.18;;;819.60;1152.00;;;;;;5050213;28;20021;-61
2022/04/01 07:17:49;;;;;;;24.08;16.25;;;768.60;1203.20;;;;;;5047592;28;20035;-61
2022/04/01 07:20:15;;;;;;;18.90;11.40;;;717.50;1280.00;;;;;;5050327;28;20109;-61
2022/04/01 07:22:42;;;;;;;16.60;10.20;;;692.00;1305.60;;;;;;5050131;28;20021;-59
2022/04/01 07:25:09;;;;;;;25.75;11.68;;;716.90;1305.60;;;;;;5050019;28;20036;-59
2022/04/01 07:27:36;;;;;;;23.15;11.20;;;793.60;1203.20;;;;;;5046996;28;20025;-61
2022/04/01 07:30:04;;;;;;;26.23;17.50;;;768.00;1228.80;;;;;;5030059;28;20045;-59
2022/04/01 07:32:34;;;;;;;19.52;14.00;;;794.20;1177.60;;;;;;5044942;28;20025;-60
2022/04/01 07:35:11;;;;;;;33.67;22.35;;;819.30;1152.00;;;;;;5045028;28;20025;-60
2022/04/01 07:37:37;;;;;;;22.90;15.73;;;819.60;1152.00;;;;;;5029699;28;20032;-60
2022/04/01 07:40:05;;;;;;;10.93;7.18;;;845.30;1152.00;;;;;;5030203;28;20022;-59
2022/04/01 07:42:31;;;;;;;8.35;4.20;;;819.80;1049.60;;;;;;5030111;28;20033;-59
2022/04/01 07:44:57;;;;;;;16.17;9.95;;;819.60;1049.60;;;;;;5029860;28;20029;-60
2022/04/01 07:47:24;;;;;;;9.25;5.90;;;819.60;1049.60;;;;;;5030164;28;20034;-61
2022/04/01 07:49:51;;;;;;;6.05;5.15;;;820.10;1024.00;;;;;;5029966;28;20032;-58
2022/04/01 07:52:19;;;;;;;9.00;4.78;;;845.30;998.40;;;;;;5030111;28;20029;-58
2022/04/01 07:54:45;;;;;;;8.43;4.78;;;820.00;998.40;;;;;;5030024;28;20017;-58
2022/04/01 07:57:12;;;;;;;5.85;2.90;;;743.30;1100.80;;;;;;5029611;28;20032;-58
2022/04/01 07:59:39;;;;;;;6.95;3.40;;;717.40;1152.00;;;;;;5029725;28;20515;-59
2022/04/01 08:02:06;;;;;;;11.10;4.90;;;666.50;1254.40;;;;;;5032727;28;20108;-56
2022/04/01 08:04:32;;;;;;;14.68;4.75;;;640.10;1433.60;;;;;;5038424;28;20021;-58
2022/04/01 08:06:58;;;;;;;7.13;3.90;;;589.00;1638.40;;;;;;5036917;28;20038;-59
2022/04/01 08:09:24;;;;;;;9.15;3.67;;;563.50;1715.20;;;;;;5035966;28;20375;-59
2022/04/01 08:11:54;;;;;;;10.05;4.80;;;538.00;1766.40;;;;;;5037204;28;20569;-60
2022/04/01 08:14:20;;;;;;;9.13;4.70;;;512.60;1817.60;;;;;;5037639;28;20017;-60
2022/04/01 08:16:47;;;;;;;8.77;4.30;;;512.20;1868.80;;;;;;5028312;28;20021;-58
2022/04/01 08:19:14;;;;;;;10.25;5.47;;;487.00;1920.00;;;;;;5028025;28;20049;-57
2022/04/01 08:21:40;;;;;;;9.85;4.78;;;486.90;2048.00;;;;;;5028006;28;20533;-57
2022/04/01 08:24:09;;;;;;;7.57;4.30;;;537.60;1945.60;;;;;;5028196;28;20107;-58
2022/04/01 08:26:35;;;;;;;9.95;5.07;;;538.00;1894.40;;;;;;5028152;28;20029;-58
2022/04/01 08:29:02;;;;;;;9.30;4.80;;;537.90;1971.20;;;;;;5027480;28;20140;-61
2022/04/01 08:31:30;;;;;;;8.63;4.53;;;614.90;1664.00;;;;;;5027212;28;20033;-61
2022/04/01 08:33:56;;;;;;;7.45;6.18;;;665.60;1510.40;;;;;;5027972;28;20026;-62
2022/04/01 08:36:22;;;;;;;7.57;4.22;;;717.40;1382.40;;;;;;5027529;28;20036;-58
2022/04/01 08:38:48;;;;;;;6.18;4.30;;;742.50;1356.80;;;;;;5027049;28;20476;-61
2022/04/01 08:41:21;;;;;;;4.70;3.60;;;768.90;1254.40;;;;;;5027199;28;20111;-62
2022/04/01 08:43:49;;;;;;;7.30;4.72;;;819.40;1228.80;;;;;;5027011;28;20037;-61
2022/04/01 08:46:15;;;;;;;7.88;4.82;;;819.80;1203.20;;;;;;5027089;28;20026;-59
2022/04/01 08:48:43;;;;;;;6.13;3.53;;;845.00;1152.00;;;;;;5028353;28;20549;-64
2022/04/01 08:51:10;;;;;;;3.83;2.95;;;845.50;1126.40;;;;;;5030868;28;20033;-62
2022/04/01 08:53:41;;;;;;;6.78;3.80;;;819.20;1126.40;;;;;;5030755;28;20468;-62
2022/04/01 08:56:08;;;;;;;3.65;3.30;;;793.60;1177.60;;;;;;5030370;28;20038;-58
2022/04/01 08:58:35;;;;;;;6.97;4.20;;;768.00;1177.60;;;;;;5030279;28;20026;-60
2022/04/01 09:01:02;;;;;;;8.00;4.22;;;742.80;1280.00;;;;;;5030941;28;20032;-58
2022/04/01 09:03:29;;;;;;;4.22;2.45;;;717.00;1356.80;;;;;;5030818;28;20024;-58
2022/04/01 09:05:57;;;;;;;3.50;1.92;;;666.30;1203.20;;;;;;5039136;28;20029;-58
2022/04/01 09:08:30;;;;;;;3.13;1.95;;;691.20;1280.00;;;;;;5031465;28;20360;-57
2022/04/01 09:11:02;;;;;;;3.22;1.70;;;665.90;1356.80;;;;;;5038500;28;20060;-58
2022/04/01 09:13:32;;;;;;;3.83;2.20;;;640.80;1382.40;;;;;;5040904;28;20025;-58
2022/04/01 09:15:58;;;;;;;2.42;1.58;;;640.70;1331.20;;;;;;5039641;28;20057;-59
2022/04/01 09:18:37;;;;;;;3.60;2.13;;;640.90;1356.80;;;;;;5041476;28;20429;-58
2022/04/01 09:21:04;;;;;;;6.40;1.70;;;665.60;1305.60;;;;;;5040064;28;20028;-57
2022/04/01 09:23:31;;;;;;;2.35;1.30;;;640.70;1254.40;;;;;;5039808;28;20036;-58
2022/04/01 09:25:57;;;;;;;2.15;1.20;;;640.10;1254.40;;;;;;5041551;28;20516;-59
2022/04/01 09:28:53;;;;;;;2.72;1.33;;;615.00;1254.40;;;;;;5039420;28;20454;-60
2022/04/01 09:31:20;;;;;;;2.60;1.23;;;589.70;1305.60;;;;;;5040008;28;20052;-56
2022/04/01 09:33:48;;;;;;;1.00;0.90;;;589.10;1331.20;;;;;;5040411;28;20029;-60
2022/04/01 09:36:18;;;;;;;3.42;1.30;;;588.90;1382.40;;;;;;5039101;28;20029;-57
2022/04/01 09:38:54;;;;;;;2.35;1.10;;;589.30;1356.80;;;;;;5039971;28;20028;-60
2022/04/01 09:41:20;;;;;;;1.83;1.10;;;589.20;1331.20;;;;;;5039208;28;20479;-57
2022/04/01 09:43:46;;;;;;;2.05;1.30;;;589.10;1331.20;;;;;;5039984;28;20039;-60
2022/04/01 09:46:25;;;;;;;2.13;1.38;;;588.90;1382.40;;;;;;5040702;28;20040;-57
2022/04/01 09:48:56;;;;;;;3.10;1.40;;;588.80;1382.40;;;;;;5040521;28;20032;-57
2022/04/01 09:51:22;;;;;;;2.45;1.40;;;564.10;1356.80;;;;;;5038493;28;20029;-58
2022/04/01 09:53:54;;;;;;;3.50;0.90;;;564.10;1331.20;;;;;;5038674;28;20025;-61
2022/04/01 09:56:40;;;;;;;3.78;1.60;;;564.10;1331.20;;;;;;5040040;28;20391;-62
2022/04/01 09:59:07;;;;;;;11.75;1.80;;;588.80;1331.20;;;;;;5030093;28;20033;-57
2022/04/01 10:01:37;;;;;;;3.00;1.40;;;588.80;1331.20;;;;;;5030191;28;20032;-57
2022/04/01 10:04:04;;;;;;;4.20;1.85;;;589.00;1305.60;;;;;;5029970;28;20017;-63
2022/04/01 10:06:32;;;;;;;2.67;1.30;;;589.40;1305.60;;;;;;5030015;28;20022;-58
2022/04/01 10:09:04;;;;;;;4.68;1.27;;;589.60;1280.00;;;;;;5029843;28;20045;-63
2022/04/01 10:11:31;;;;;;;2.85;1.27;;;589.60;1305.60;;;;;;5034802;28;20041;-59
2022/04/01 10:14:03;;;;;;;3.72;1.73;;;614.60;1280.00;;;;;;5040289;28;20028;-57
2022/04/01 10:16:33;;;;;;;2.60;1.60;;;614.60;1305.60;;;;;;5039770;28;20026;-56
2022/04/01 10:19:05;;;;;;;3.28;1.60;;;614.80;1356.80;;;;;;5038732;28;20017;-57
2022/04/01 10:21:32;;;;;;;5.00;1.70;;;615.10;1254.40;;;;;;5038056;28;20159;-63
2022/04/01 10:24:13;;;;;;;5.18;1.75;;;614.80;1280.00;;;;;;5039691;28;20122;-60
2022/04/01 10:26:45;;;;;;;2.75;1.77;;;615.10;1305.60;;;;;;5038420;28;20510;-61
2022/04/01 10:29:12;;;;;;;2.47;1.67;;;614.90;1254.40;;;;;;5037221;28;20037;-57
2022/04/01 10:31:39;;;;;;;3.28;2.00;;;615.20;1280.00;;;;;;5039746;28;20525;-58
2022/04/01 10:34:25;;;;;;;3.45;1.85;;;615.20;1228.80;;;;;;5039584;28;20028;-56
2022/04/01 10:37:14;;;;;;;2.53;1.45;;;640.00;1305.60;;;;;;5039847;28;20037;-60
2022/04/01 10:39:55;;;;;;;2.78;1.33;;;615.20;1331.20;;;;;;5029277;28;20159;-58
2022/04/01 10:42:35;;;;;;;2.22;1.50;;;615.00;1305.60;;;;;;5028735;28;20082;-57
2022/04/01 10:45:06;;;;;;;4.65;1.92;;;615.30;1254.40;;;;;;5031748;28;20108;-62
2022/04/01 10:53:41;;;;;;;5.28;2.38;;;615.30;1254.40;;;;;;5049537;28;20477;-60
2022/04/01 10:56:22;;;;;;;3.13;2.03;;;640.10;1203.20;;;;;;5048847;28;20116;-57
2022/04/01 10:59:15;;;;;;;2.65;1.50;;;640.00;1228.80;;;;;;5048787;28;20475;-57
2022/04/01 11:01:53;;;;;;;5.28;2.40;;;615.10;1254.40;;;;;;5046235;28;20037;-60
2022/04/01 11:04:18;;;;;;;7.88;3.95;;;614.60;1254.40;;;;;;5046315;28;20033;-58
2022/04/01 11:06:57;;;;;;;6.03;3.05;;;589.70;1254.40;;;;;;5046466;28;20033;-58
2022/04/01 11:09:34;;;;;;;3.33;1.70;;;589.50;1280.00;;;;;;5029269;28;20060;-60
2022/04/01 11:12:15;;;;;;;3.58;1.58;;;588.90;1280.00;;;;;;5045549;28;20072;-58
2022/04/01 11:14:59;;;;;;;3.60;2.50;;;563.90;1356.80;;;;;;5046171;28;20068;-61
2022/04/01 11:17:34;;;;;;;3.25;1.80;;;563.50;1382.40;;;;;;5029599;28;20375;-63
2022/04/01 11:20:09;;;;;;;3.95;1.77;;;563.60;1356.80;;;;;;5046206;28;20550;-62
2022/04/01 11:22:36;;;;;;;3.47;1.90;;;563.70;1356.80;;;;;;5045820;28;20112;-58
2022/04/01 11:25:02;;;;;;;3.17;1.70;;;563.90;1408.00;;;;;;5046009;28;20379;-59
2022/04/01 11:27:28;;;;;;;1.92;1.30;;;563.90;1382.40;;;;;;5045811;28;20573;-62
2022/04/01 11:30:14;;;;;;;2.97;1.85;;;564.00;1331.20;;;;;;5045941;28;20056;-57
2022/04/01 11:32:47;;;;;;;2.58;1.33;;;564.10;1305.60;;;;;;5045795;28;20187;-61
2022/04/01 11:35:17;;;;;;;3.87;1.50;;;564.10;1305.60;;;;;;5045664;28;20425;-59
2022/04/01 11:37:45;;;;;;;4.45;2.20;;;588.80;1356.80;;;;;;5046456;28;20037;-59
2022/04/01 11:40:21;;;;;;;4.53;2.88;;;563.90;1331.20;;;;;;5048321;28;20391;-58
2022/04/01 11:43:03;;;;;;;3.88;2.20;;;563.70;1408.00;;;;;;5048744;28;20569;-58
2022/04/01 11:45:40;;;;;;;4.43;2.13;;;563.50;1433.60;;;;;;5048404;28;20029;-61
2022/04/01 11:48:32;;;;;;;7.97;2.97;;;563.50;1433.60;;;;;;5047939;28;20032;-57
2022/04/01 11:51:04;;;;;;;6.75;3.00;;;563.60;1433.60;;;;;;5048078;28;20048;-58
2022/04/01 11:53:39;;;;;;;10.40;4.27;;;563.60;1433.60;;;;;;5048475;28;20053;-57
2022/04/01 11:56:08;;;;;;;10.73;5.00;;;563.90;1433.60;;;;;;5050503;28;20376;-57
2022/04/01 11:58:36;;;;;;;18.17;12.93;;;564.00;1433.60;;;;;;5049919;28;20021;-61
2022/04/01 12:01:02;;;;;;;9.63;6.03;;;589.10;1408.00;;;;;;5049620;28;20037;-60
2022/04/01 12:03:28;;;;;;;11.38;7.13;;;589.40;1382.40;;;;;;5049760;28;20017;-62
2022/04/01 12:08:41;;;;;;;63.15;36.70;;;589.70;1408.00;;;;;;5049897;28;20502;-57
2022/04/01 12:08:45;;;;;;;41.03;23.00;;;614.50;1382.40;;;;;;5047776;28;20040;-58
2022/04/01 12:11:12;;;;;;;13.75;7.25;;;614.80;1356.80;;;;;;5047916;28;20510;-60
2022/04/01 12:13:53;;;;;;;13.15;7.65;;;614.70;1356.80;;;;;;5048061;28;20037;-61
2022/04/01 12:16:21;;;;;;;8.98;5.30;;;614.60;1356.80;;;;;;5047918;28;20071;-58
2022/04/01 12:18:49;;;;;;;36.75;21.58;;;589.70;1382.40;;;;;;5048165;28;20467;-62
2022/04/01 12:21:19;;;;;;;42.97;25.98;;;589.30;1408.00;;;;;;5047723;28;20082;-58
2022/04/01 12:23:48;;;;;;;30.95;19.13;;;564.10;1433.60;;;;;;5050775;28;20079;-58
2022/04/01 12:26:20;;;;;;;10.00;5.55;;;563.60;1484.80;;;;;;5051960;28;20333;-58
2022/04/01 12:28:49;;;;;;;73.25;41.47;;;563.50;1484.80;;;;;;5051691;28;20123;-61
2022/04/01 12:31:33;;;;;;;32.08;18.92;;;563.20;1510.40;;;;;;5051732;28;20162;-58
2022/04/01 12:33:59;;;;;;;41.10;26.02;;;538.40;1510.40;;;;;;5051432;28;20021;-59